Time;durP1;ratioP1;P1;durP2;ratioP2;P2;SDS_P1;SDS_P2;PMS_P1;PMS_P2;Temp;Humidity;BMP_temperature;BMP_pressure;BME280_temperature;BME280_humidity;BME280_pressure;Samples;Min_cycle;Max_cycle;Signal;HPM_P1;HPM_P2
2022/04/24 00:00:18;;;;;;;1.87;1.80;;;11.50;98.00;;;;;;5110817;28;20534;-70
2022/04/24 00:02:45;;;;;;;3.20;2.50;;;11.50;98.00;;;;;;5110875;28;20508;-69
2022/04/24 00:05:12;;;;;;;1.90;1.50;;;11.70;98.00;;;;;;5111235;28;20455;-69
2022/04/24 00:07:40;;;;;;;3.57;1.87;;;11.50;98.00;;;;;;5113779;28;20449;-69
2022/04/24 00:10:10;;;;;;;1.60;1.60;;;11.40;98.00;;;;;;5114898;28;20480;-69
2022/04/24 00:12:37;;;;;;;1.43;1.40;;;11.30;98.00;;;;;;5114631;28;20460;-69
2022/04/24 00:15:05;;;;;;;4.33;2.33;;;11.20;98.00;;;;;;5115630;28;20497;-68
2022/04/24 00:17:32;;;;;;;2.50;1.97;;;11.10;98.00;;;;;;5114459;28;20802;-69
2022/04/24 00:19:59;;;;;;;4.33;1.70;;;11.00;98.00;;;;;;5115276;28;20514;-69
2022/04/24 00:22:27;;;;;;;2.87;2.10;;;11.00;98.00;;;;;;5115154;28;20488;-69
2022/04/24 00:24:54;;;;;;;2.77;1.77;;;11.20;98.00;;;;;;5114466;28;20531;-69
2022/04/24 00:27:23;;;;;;;3.27;2.50;;;11.10;98.00;;;;;;5114323;28;20452;-70
2022/04/24 00:29:50;;;;;;;3.93;2.47;;;11.20;98.00;;;;;;5114364;28;20517;-69
2022/04/24 00:32:17;;;;;;;1.97;1.90;;;11.30;98.00;;;;;;5112946;28;20873;-69
2022/04/24 00:34:44;;;;;;;5.03;2.70;;;11.40;98.00;;;;;;5114296;28;20493;-69
2022/04/24 00:37:11;;;;;;;1.70;1.63;;;11.50;98.00;;;;;;5114106;28;20488;-69
2022/04/24 00:39:37;;;;;;;2.60;1.60;;;11.60;98.00;;;;;;5113960;28;20823;-69
2022/04/24 00:42:08;;;;;;;1.90;1.50;;;11.50;98.00;;;;;;5113825;28;20487;-69
2022/04/24 00:44:36;;;;;;;3.17;1.73;;;11.60;98.00;;;;;;5113957;28;20982;-69
2022/04/24 00:47:07;;;;;;;1.70;1.60;;;11.60;98.00;;;;;;5113540;28;20489;-69
2022/04/24 00:49:36;;;;;;;3.43;2.30;;;11.60;98.00;;;;;;5113762;28;20489;-69
2022/04/24 00:52:04;;;;;;;1.67;1.63;;;11.70;98.00;;;;;;5113565;28;20516;-69
2022/04/24 00:54:32;;;;;;;2.13;1.57;;;11.80;98.00;;;;;;5113755;27;20879;-69
2022/04/24 00:57:00;;;;;;;1.93;1.67;;;11.80;98.00;;;;;;5113586;28;20556;-69
2022/04/24 00:59:27;;;;;;;2.93;2.20;;;11.70;98.00;;;;;;5113706;27;20490;-69
2022/04/24 01:01:55;;;;;;;3.30;2.37;;;11.60;98.00;;;;;;5113484;28;20572;-70
2022/04/24 01:04:22;;;;;;;1.60;1.47;;;11.70;98.00;;;;;;5113682;28;20485;-69
2022/04/24 01:06:49;;;;;;;3.37;1.77;;;11.70;98.00;;;;;;5113645;28;20477;-70
2022/04/24 01:09:18;;;;;;;3.43;2.40;;;11.50;98.00;;;;;;5113550;28;20459;-69
2022/04/24 01:11:47;;;;;;;4.10;2.00;;;11.40;98.00;;;;;;5113576;28;20822;-70
2022/04/24 01:14:16;;;;;;;2.20;1.80;;;11.30;98.00;;;;;;5113586;28;20493;-69
2022/04/24 01:16:44;;;;;;;2.80;2.07;;;11.40;98.00;;;;;;5113315;28;20465;-70
2022/04/24 01:19:13;;;;;;;9.43;2.00;;;11.30;98.00;;;;;;5112845;28;20516;-69
2022/04/24 01:21:43;;;;;;;1.73;1.63;;;11.30;98.00;;;;;;5113110;28;20517;-70
2022/04/24 01:24:12;;;;;;;2.27;1.60;;;11.20;98.00;;;;;;5113205;28;20489;-69
2022/04/24 01:26:39;;;;;;;2.73;1.73;;;11.20;98.00;;;;;;5111937;28;20516;-69
2022/04/24 01:29:06;;;;;;;4.00;2.60;;;11.10;98.00;;;;;;5112990;28;20488;-69
2022/04/24 01:31:34;;;;;;;3.20;2.30;;;11.10;98.00;;;;;;5112994;28;20457;-70
2022/04/24 01:34:01;;;;;;;1.30;1.20;;;11.10;98.00;;;;;;5112845;28;20869;-69
2022/04/24 01:36:28;;;;;;;4.20;3.27;;;11.10;98.00;;;;;;5112939;28;20488;-69
2022/04/24 01:38:58;;;;;;;4.33;2.40;;;11.20;98.00;;;;;;5112660;28;20506;-69
2022/04/24 01:41:25;;;;;;;2.40;1.60;;;11.40;98.00;;;;;;5112813;28;20483;-69
2022/04/24 01:43:53;;;;;;;5.10;3.03;;;11.40;98.00;;;;;;5112680;28;20457;-69
2022/04/24 01:46:20;;;;;;;2.33;1.50;;;11.50;98.00;;;;;;5112659;28;20458;-68
2022/04/24 01:48:47;;;;;;;3.50;3.03;;;11.40;98.00;;;;;;5112683;28;20865;-69
2022/04/24 01:51:14;;;;;;;2.27;2.17;;;11.20;98.00;;;;;;5112598;28;20453;-68
2022/04/24 01:53:42;;;;;;;2.27;2.07;;;11.20;98.00;;;;;;5112575;28;20514;-69
2022/04/24 01:56:11;;;;;;;4.73;2.13;;;11.20;98.00;;;;;;5112631;28;20533;-68
2022/04/24 01:58:38;;;;;;;1.93;1.50;;;11.20;98.00;;;;;;5112560;28;20500;-70
2022/04/24 02:01:06;;;;;;;1.70;1.57;;;11.10;98.00;;;;;;5112694;28;20575;-69
2022/04/24 02:03:34;;;;;;;1.93;1.80;;;11.10;98.00;;;;;;5112132;28;20608;-69
2022/04/24 02:06:02;;;;;;;1.87;1.77;;;11.10;98.00;;;;;;5112227;28;20491;-69
2022/04/24 02:08:30;;;;;;;1.57;1.57;;;11.20;98.00;;;;;;5112267;28;20451;-69
2022/04/24 02:10:57;;;;;;;4.37;2.50;;;11.30;98.00;;;;;;5112276;28;20467;-69
2022/04/24 02:13:26;;;;;;;3.13;2.40;;;11.50;98.00;;;;;;5112209;28;20456;-69
2022/04/24 02:15:56;;;;;;;1.97;1.50;;;11.50;98.00;;;;;;5112083;28;20510;-69
2022/04/24 02:18:23;;;;;;;3.30;1.90;;;11.40;98.00;;;;;;5110787;28;20531;-70
2022/04/24 02:20:50;;;;;;;3.37;2.57;;;11.30;98.00;;;;;;5110631;28;20535;-69
2022/04/24 02:23:17;;;;;;;2.60;2.50;;;11.20;98.00;;;;;;5111825;28;20454;-70
2022/04/24 02:25:44;;;;;;;2.27;1.97;;;11.20;98.00;;;;;;5111905;28;20465;-69
2022/04/24 02:28:11;;;;;;;3.10;2.10;;;11.10;98.00;;;;;;5111817;28;20869;-68
2022/04/24 02:30:39;;;;;;;2.80;1.73;;;11.10;98.00;;;;;;5111161;28;20777;-69
2022/04/24 02:33:06;;;;;;;2.20;1.93;;;11.00;98.00;;;;;;5111647;28;20451;-68
2022/04/24 02:35:33;;;;;;;2.63;2.37;;;11.00;98.00;;;;;;5111883;28;20483;-69
2022/04/24 02:38:00;;;;;;;4.07;2.90;;;11.00;98.00;;;;;;5111641;28;20552;-69
2022/04/24 02:40:27;;;;;;;2.03;1.40;;;11.20;98.00;;;;;;5111770;28;20571;-69
2022/04/24 02:42:55;;;;;;;1.80;1.67;;;11.20;98.00;;;;;;5111721;28;20475;-69
2022/04/24 02:45:22;;;;;;;2.83;1.40;;;11.10;98.00;;;;;;5111777;28;20483;-69
2022/04/24 02:47:51;;;;;;;1.87;1.83;;;11.00;98.00;;;;;;5111454;28;20488;-69
2022/04/24 02:50:18;;;;;;;2.00;1.67;;;10.90;98.00;;;;;;5111890;27;20529;-69
2022/04/24 02:52:46;;;;;;;1.37;1.30;;;10.90;98.00;;;;;;5110851;28;20852;-69
2022/04/24 02:55:15;;;;;;;2.90;1.87;;;10.90;98.00;;;;;;5111701;28;20545;-69
2022/04/24 02:57:45;;;;;;;3.77;1.73;;;10.90;98.00;;;;;;5110968;28;20455;-68
2022/04/24 03:00:19;;;;;;;1.77;1.67;;;10.90;98.00;;;;;;5112112;28;20590;-69
2022/04/24 03:02:46;;;;;;;1.97;1.73;;;10.90;98.00;;;;;;5110294;28;20816;-69
2022/04/24 03:05:16;;;;;;;4.10;1.67;;;10.90;98.00;;;;;;5111468;28;20508;-69
2022/04/24 03:07:44;;;;;;;1.90;1.40;;;10.90;98.00;;;;;;5111374;28;20500;-69
2022/04/24 03:10:11;;;;;;;2.80;1.80;;;10.90;98.00;;;;;;5111352;28;20510;-69
2022/04/24 03:12:40;;;;;;;2.00;1.77;;;10.90;98.00;;;;;;5110174;28;20464;-68
2022/04/24 03:15:09;;;;;;;1.90;1.77;;;10.90;98.00;;;;;;5111372;28;20522;-69
2022/04/24 03:17:37;;;;;;;3.10;1.80;;;10.90;98.00;;;;;;5110649;28;20455;-68
2022/04/24 03:20:07;;;;;;;2.00;1.60;;;10.90;98.00;;;;;;5093294;28;20462;-69
2022/04/24 03:22:35;;;;;;;1.60;1.40;;;11.00;98.00;;;;;;5111179;28;20525;-69
2022/04/24 03:25:03;;;;;;;3.13;1.87;;;11.10;98.00;;;;;;5111209;28;20454;-69
2022/04/24 03:27:30;;;;;;;2.60;1.87;;;11.20;98.00;;;;;;5111279;28;20598;-68
2022/04/24 03:29:57;;;;;;;1.87;1.77;;;11.10;98.00;;;;;;5109912;28;20453;-69
2022/04/24 03:32:24;;;;;;;2.07;1.60;;;11.30;98.00;;;;;;5109837;28;20471;-69
2022/04/24 03:34:52;;;;;;;2.47;2.10;;;11.20;98.00;;;;;;5111214;28;20512;-69
2022/04/24 03:37:19;;;;;;;2.07;1.50;;;11.10;98.00;;;;;;5111101;28;20538;-69
2022/04/24 03:39:48;;;;;;;1.90;1.87;;;11.20;98.00;;;;;;5111283;28;20959;-69
2022/04/24 03:42:15;;;;;;;1.80;1.60;;;11.10;98.00;;;;;;5114220;28;20931;-69
2022/04/24 03:44:42;;;;;;;2.27;1.93;;;11.10;98.00;;;;;;5113962;28;20441;-69
2022/04/24 03:47:09;;;;;;;3.13;1.93;;;11.10;98.00;;;;;;5114789;28;20743;-69
2022/04/24 03:49:36;;;;;;;1.80;1.60;;;11.00;98.00;;;;;;5115012;28;20457;-68
2022/04/24 03:52:03;;;;;;;2.60;1.87;;;10.90;98.00;;;;;;5114867;28;20536;-69
2022/04/24 03:54:30;;;;;;;1.87;1.83;;;10.90;98.00;;;;;;5114946;28;20541;-69
2022/04/24 03:56:58;;;;;;;1.40;1.10;;;10.90;98.00;;;;;;5114708;28;20508;-69
2022/04/24 03:59:26;;;;;;;3.10;1.70;;;11.00;98.00;;;;;;5114741;28;20546;-70
2022/04/24 04:01:53;;;;;;;3.00;2.13;;;11.20;98.00;;;;;;5113403;28;20926;-69
2022/04/24 04:04:23;;;;;;;1.80;1.63;;;11.50;98.00;;;;;;5114699;28;20895;-68
2022/04/24 04:06:49;;;;;;;2.60;2.20;;;11.60;98.00;;;;;;5114718;28;20454;-69
2022/04/24 04:09:18;;;;;;;2.27;1.60;;;11.40;98.00;;;;;;5114358;28;20478;-68
2022/04/24 04:11:45;;;;;;;2.40;1.67;;;11.30;98.00;;;;;;5113174;28;20464;-69
2022/04/24 04:14:13;;;;;;;1.40;1.30;;;11.30;98.00;;;;;;5114445;28;20608;-68
2022/04/24 04:16:40;;;;;;;2.00;1.90;;;11.30;98.00;;;;;;5114539;28;20449;-69
2022/04/24 04:19:07;;;;;;;1.53;1.50;;;11.10;98.00;;;;;;5113097;28;20460;-68
2022/04/24 04:21:34;;;;;;;1.50;1.50;;;11.10;98.00;;;;;;5114330;28;20897;-69
2022/04/24 04:24:01;;;;;;;1.50;1.40;;;11.00;98.00;;;;;;5114137;28;20489;-68
2022/04/24 04:26:28;;;;;;;3.57;2.10;;;10.90;98.00;;;;;;5114325;28;21007;-69
2022/04/24 04:28:55;;;;;;;2.47;2.30;;;10.90;98.00;;;;;;5114057;28;20976;-69
2022/04/24 04:31:24;;;;;;;2.30;2.10;;;10.80;98.00;;;;;;5114346;28;20505;-68
2022/04/24 04:33:51;;;;;;;1.77;1.70;;;10.80;98.00;;;;;;5114226;28;20460;-69
2022/04/24 04:36:21;;;;;;;1.83;1.77;;;10.90;98.00;;;;;;5114181;28;21154;-69
2022/04/24 04:38:48;;;;;;;2.47;2.20;;;11.00;98.00;;;;;;5114118;28;20871;-68
2022/04/24 04:41:15;;;;;;;2.37;1.90;;;11.20;98.00;;;;;;5113886;28;20513;-69
2022/04/24 04:43:43;;;;;;;3.57;2.67;;;11.40;98.00;;;;;;5113845;28;20485;-69
2022/04/24 04:46:10;;;;;;;1.53;1.50;;;11.30;98.00;;;;;;5113786;28;20514;-69
2022/04/24 04:48:40;;;;;;;2.13;1.77;;;11.30;98.00;;;;;;5112594;28;20507;-69
2022/04/24 04:51:07;;;;;;;2.27;2.10;;;11.30;98.00;;;;;;5113799;28;20493;-69
2022/04/24 04:53:35;;;;;;;1.80;1.60;;;11.30;98.00;;;;;;5112970;28;20966;-69
2022/04/24 04:56:03;;;;;;;4.93;2.37;;;11.40;98.00;;;;;;5113665;27;20452;-69
2022/04/24 04:58:31;;;;;;;2.60;2.40;;;11.30;98.00;;;;;;5113751;27;20611;-69
2022/04/24 05:01:00;;;;;;;2.07;1.40;;;11.20;98.00;;;;;;5113481;27;20457;-69
2022/04/24 05:03:28;;;;;;;3.00;2.70;;;11.10;98.00;;;;;;5113407;28;20454;-68
2022/04/24 05:05:56;;;;;;;1.30;1.23;;;11.10;98.00;;;;;;5112168;28;20534;-69
2022/04/24 05:08:23;;;;;;;2.37;1.50;;;11.10;98.00;;;;;;5113431;28;20501;-68
2022/04/24 05:10:51;;;;;;;1.20;1.00;;;10.80;98.00;;;;;;5113546;28;20993;-68
2022/04/24 05:13:18;;;;;;;2.60;1.13;;;10.40;98.00;;;;;;5113144;28;20492;-68
2022/04/24 05:15:45;;;;;;;1.50;1.10;;;10.10;98.00;;;;;;5113327;28;20498;-68
2022/04/24 05:18:12;;;;;;;1.20;1.10;;;9.80;98.00;;;;;;5111933;28;20499;-68
2022/04/24 05:20:39;;;;;;;1.20;0.90;;;9.80;98.00;;;;;;5113199;28;20505;-68
2022/04/24 05:23:08;;;;;;;1.20;1.10;;;9.80;98.00;;;;;;5113041;28;20518;-68
2022/04/24 05:25:36;;;;;;;5.13;1.63;;;9.80;98.00;;;;;;5113377;28;20483;-68
2022/04/24 05:28:03;;;;;;;1.37;1.10;;;9.80;98.00;;;;;;5113089;28;20544;-68
2022/04/24 05:30:38;;;;;;;1.70;1.50;;;9.60;98.00;;;;;;5113051;28;20508;-68
2022/04/24 05:33:05;;;;;;;1.20;1.00;;;9.70;98.00;;;;;;5113025;28;20937;-68
2022/04/24 05:35:36;;;;;;;1.30;1.00;;;9.70;98.00;;;;;;5112924;28;20511;-67
2022/04/24 05:38:03;;;;;;;1.20;1.10;;;9.60;98.00;;;;;;5112785;28;20899;-68
2022/04/24 05:40:31;;;;;;;1.20;1.00;;;9.60;98.00;;;;;;5113101;28;20865;-68
2022/04/24 05:42:58;;;;;;;1.20;1.20;;;9.50;98.00;;;;;;5112647;28;21093;-68
2022/04/24 05:45:26;;;;;;;1.43;1.20;;;9.50;98.00;;;;;;5112675;27;20454;-68
2022/04/24 05:47:54;;;;;;;1.50;1.30;;;9.40;98.00;;;;;;5112760;28;20469;-68
2022/04/24 05:50:21;;;;;;;1.20;1.03;;;9.40;98.00;;;;;;5113309;27;20457;-68
2022/04/24 05:52:48;;;;;;;1.20;1.00;;;9.40;98.00;;;;;;5112864;28;20450;-68
2022/04/24 05:55:15;;;;;;;1.20;0.90;;;9.40;98.00;;;;;;5112553;28;20478;-68
2022/04/24 05:57:44;;;;;;;1.20;1.00;;;9.40;98.00;;;;;;5112919;28;20493;-68
2022/04/24 06:00:12;;;;;;;1.20;0.90;;;9.40;98.00;;;;;;5113531;28;20483;-68
2022/04/24 06:02:40;;;;;;;1.20;0.90;;;9.40;98.00;;;;;;5112830;28;20479;-68
2022/04/24 06:05:08;;;;;;;1.20;0.90;;;9.40;98.00;;;;;;5112354;28;20482;-68
2022/04/24 06:07:43;;;;;;;1.20;0.90;;;9.40;98.00;;;;;;5112356;28;20489;-68
2022/04/24 06:10:12;;;;;;;1.20;1.00;;;9.60;98.00;;;;;;5112365;28;20801;-68
2022/04/24 06:12:48;;;;;;;1.20;0.90;;;9.60;98.00;;;;;;5112221;28;20542;-68
2022/04/24 06:15:17;;;;;;;1.20;0.90;;;9.60;98.00;;;;;;5112300;28;20869;-68
2022/04/24 06:17:46;;;;;;;1.20;1.00;;;9.50;98.00;;;;;;5112355;28;20528;-68
2022/04/24 06:20:16;;;;;;;1.20;1.00;;;9.50;98.00;;;;;;5112431;28;20519;-68
2022/04/24 06:22:44;;;;;;;1.30;1.13;;;9.50;98.00;;;;;;5112132;28;20536;-68
2022/04/24 06:25:15;;;;;;;1.20;1.00;;;9.30;98.00;;;;;;5112086;28;20486;-68
2022/04/24 06:27:42;;;;;;;1.20;0.90;;;9.30;98.00;;;;;;5110834;28;20455;-68
2022/04/24 06:30:11;;;;;;;1.20;0.90;;;9.20;98.00;;;;;;5111917;28;20494;-67
2022/04/24 06:32:39;;;;;;;1.20;0.90;;;9.40;98.00;;;;;;5111931;28;20479;-68
2022/04/24 06:35:09;;;;;;;1.20;0.90;;;9.40;98.00;;;;;;5112010;28;20507;-68
2022/04/24 06:37:36;;;;;;;1.20;0.90;;;9.40;98.00;;;;;;5110481;28;20451;-68
2022/04/24 06:40:05;;;;;;;1.20;1.00;;;9.30;98.00;;;;;;5112019;28;20489;-67
2022/04/24 06:42:32;;;;;;;1.20;0.90;;;9.20;98.00;;;;;;5111629;28;20543;-68
2022/04/24 06:44:59;;;;;;;1.20;0.90;;;9.20;98.00;;;;;;5111663;28;20490;-67
2022/04/24 06:47:28;;;;;;;1.20;0.90;;;9.20;98.00;;;;;;5111486;28;20507;-67
2022/04/24 06:49:55;;;;;;;1.17;0.90;;;9.10;98.00;;;;;;5111654;28;20483;-67
2022/04/24 06:52:22;;;;;;;1.20;0.90;;;9.00;98.00;;;;;;5111478;28;20496;-67
2022/04/24 06:54:50;;;;;;;1.20;1.00;;;8.90;98.00;;;;;;5111533;28;20515;-68
2022/04/24 06:57:17;;;;;;;1.20;0.90;;;8.90;98.00;;;;;;5111462;28;20484;-68
2022/04/24 06:59:44;;;;;;;1.20;1.00;;;8.90;98.00;;;;;;5111385;28;20454;-68
2022/04/24 07:02:11;;;;;;;1.20;1.00;;;8.90;98.00;;;;;;5110290;28;20514;-68
2022/04/24 07:04:40;;;;;;;1.20;0.90;;;9.00;98.00;;;;;;5111505;28;20489;-67
2022/04/24 07:07:09;;;;;;;1.20;0.90;;;8.90;98.00;;;;;;5111534;28;21015;-68
2022/04/24 07:09:36;;;;;;;1.20;1.00;;;8.90;98.00;;;;;;5093895;28;20509;-68
2022/04/24 07:12:03;;;;;;;1.20;0.93;;;8.90;98.00;;;;;;5111448;28;20486;-68
2022/04/24 07:14:30;;;;;;;1.20;0.90;;;9.00;98.00;;;;;;5111494;28;20866;-67
2022/04/24 07:16:57;;;;;;;1.20;1.00;;;9.00;98.00;;;;;;5113982;28;21021;-68
2022/04/24 07:19:24;;;;;;;1.20;1.00;;;9.00;98.00;;;;;;5115613;28;20446;-67
2022/04/24 07:21:52;;;;;;;1.20;0.90;;;9.00;98.00;;;;;;5115495;28;20497;-67
2022/04/24 07:24:19;;;;;;;1.20;0.90;;;9.00;98.00;;;;;;5115419;28;20504;-69
2022/04/24 07:26:46;;;;;;;1.20;0.90;;;9.10;98.00;;;;;;5111767;27;20480;-68
2022/04/24 07:29:13;;;;;;;1.20;0.90;;;9.10;98.00;;;;;;5117803;27;20486;-68
2022/04/24 07:31:40;;;;;;;1.40;1.00;;;9.10;98.00;;;;;;5120410;27;20865;-67
2022/04/24 07:34:07;;;;;;;1.20;0.90;;;9.20;98.00;;;;;;5126817;27;20503;-68
2022/04/24 07:36:35;;;;;;;1.20;0.90;;;9.30;98.00;;;;;;5122017;27;20551;-67
2022/04/24 07:39:03;;;;;;;1.20;0.90;;;9.40;98.00;;;;;;5130316;27;20510;-68
2022/04/24 07:41:30;;;;;;;1.30;1.10;;;9.40;98.00;;;;;;5122339;27;21002;-68
2022/04/24 07:43:57;;;;;;;1.20;0.90;;;9.40;98.00;;;;;;5132346;27;20573;-68
2022/04/24 07:46:24;;;;;;;1.20;0.93;;;9.40;98.00;;;;;;5129251;27;20486;-68
2022/04/24 07:48:51;;;;;;;1.20;0.90;;;9.40;98.00;;;;;;5129279;27;20505;-68
2022/04/24 07:51:18;;;;;;;1.20;0.90;;;9.40;98.00;;;;;;5120378;27;20485;-68
2022/04/24 07:53:45;;;;;;;1.20;0.90;;;9.50;98.00;;;;;;5122369;27;20455;-69
2022/04/24 07:56:14;;;;;;;1.20;0.90;;;9.50;98.00;;;;;;5130053;27;21034;-69
2022/04/24 07:58:41;;;;;;;1.20;1.00;;;9.40;98.00;;;;;;5114494;28;20456;-67
2022/04/24 08:01:10;;;;;;;1.20;0.90;;;9.40;98.00;;;;;;5115020;28;20502;-67
2022/04/24 08:03:37;;;;;;;1.20;0.90;;;9.30;98.00;;;;;;5113543;28;20486;-68
2022/04/24 08:06:05;;;;;;;1.20;0.90;;;9.20;98.00;;;;;;5113652;28;20454;-68
2022/04/24 08:08:32;;;;;;;1.20;0.90;;;9.10;98.00;;;;;;5114617;28;21084;-68
2022/04/24 08:11:00;;;;;;;1.20;0.90;;;9.20;98.00;;;;;;5114368;28;20543;-68
2022/04/24 08:13:29;;;;;;;1.20;1.00;;;9.30;98.00;;;;;;5114717;28;20450;-68
2022/04/24 08:15:57;;;;;;;1.20;0.90;;;9.40;98.00;;;;;;5114384;28;20498;-69
2022/04/24 08:18:24;;;;;;;1.20;0.90;;;9.30;98.00;;;;;;5114245;28;20450;-68
2022/04/24 08:20:52;;;;;;;1.20;0.90;;;9.30;98.00;;;;;;5114153;28;20489;-68
2022/04/24 08:23:20;;;;;;;1.20;0.90;;;9.30;98.00;;;;;;5114033;28;20682;-68
2022/04/24 08:25:48;;;;;;;1.20;0.90;;;9.40;98.00;;;;;;5114321;28;20451;-69
2022/04/24 08:28:15;;;;;;;1.20;0.90;;;9.50;98.00;;;;;;5113213;28;20486;-68
2022/04/24 08:30:45;;;;;;;1.20;0.90;;;9.50;98.00;;;;;;5114390;28;20881;-68
2022/04/24 08:33:13;;;;;;;1.20;0.90;;;9.50;98.00;;;;;;5114117;28;20457;-68
2022/04/24 08:35:41;;;;;;;1.20;0.90;;;9.60;98.00;;;;;;5114098;28;20821;-68
2022/04/24 08:38:08;;;;;;;1.20;0.90;;;9.60;98.00;;;;;;5114701;28;20482;-68
2022/04/24 08:40:35;;;;;;;1.20;0.90;;;9.60;98.00;;;;;;5114812;28;20447;-69
2022/04/24 08:43:03;;;;;;;1.20;0.90;;;9.60;98.00;;;;;;5112316;28;20564;-68
2022/04/24 08:45:31;;;;;;;1.20;0.97;;;9.80;98.00;;;;;;5114110;28;20462;-68
2022/04/24 08:48:00;;;;;;;1.20;0.90;;;9.70;98.00;;;;;;5114463;28;20458;-68
2022/04/24 08:50:29;;;;;;;1.20;0.90;;;9.70;98.00;;;;;;5114232;28;20455;-68
2022/04/24 08:52:58;;;;;;;1.20;1.00;;;9.70;98.00;;;;;;5113347;28;20859;-69
2022/04/24 08:55:26;;;;;;;1.20;0.90;;;9.50;98.00;;;;;;5112712;28;20544;-68
2022/04/24 08:57:53;;;;;;;1.20;1.00;;;9.50;98.00;;;;;;5113516;28;20450;-69
2022/04/24 09:00:21;;;;;;;1.20;0.90;;;9.50;98.00;;;;;;5114491;28;20485;-68
2022/04/24 09:02:50;;;;;;;1.20;0.90;;;9.60;98.00;;;;;;5114115;28;20481;-69
2022/04/24 09:05:19;;;;;;;1.20;0.90;;;9.70;98.00;;;;;;5114253;28;20484;-68
2022/04/24 09:07:46;;;;;;;1.20;1.00;;;9.90;98.00;;;;;;5114326;28;20482;-68
2022/04/24 09:10:13;;;;;;;1.20;1.00;;;9.80;98.00;;;;;;5114228;28;20466;-68
2022/04/24 09:12:41;;;;;;;2.20;1.30;;;9.70;98.00;;;;;;5114039;28;20465;-68
2022/04/24 09:15:09;;;;;;;1.20;0.90;;;9.70;98.00;;;;;;5114147;28;20460;-69
2022/04/24 09:17:38;;;;;;;1.20;0.90;;;9.70;98.00;;;;;;5114163;28;20451;-68
2022/04/24 09:20:19;;;;;;;1.20;0.90;;;9.90;98.00;;;;;;5113997;28;20496;-68
2022/04/24 09:22:47;;;;;;;1.20;0.90;;;9.90;98.00;;;;;;5113825;28;20548;-69
2022/04/24 09:25:14;;;;;;;1.30;1.00;;;9.80;98.00;;;;;;5113994;28;20544;-68
2022/04/24 09:27:42;;;;;;;1.20;0.90;;;9.80;98.00;;;;;;5113964;28;20516;-69
2022/04/24 09:30:13;;;;;;;1.20;0.90;;;9.70;98.00;;;;;;5113981;28;20451;-68
2022/04/24 09:32:50;;;;;;;1.20;0.90;;;9.60;98.00;;;;;;5113919;28;20527;-68
2022/04/24 09:35:29;;;;;;;1.17;0.90;;;9.70;98.00;;;;;;5113823;28;20520;-68
2022/04/24 09:38:07;;;;;;;1.10;0.90;;;9.80;98.00;;;;;;5113581;28;20461;-68
2022/04/24 09:40:40;;;;;;;1.20;1.00;;;9.70;98.00;;;;;;5113538;28;20493;-68
2022/04/24 09:43:09;;;;;;;1.20;0.90;;;9.70;98.00;;;;;;5113610;28;20483;-68
2022/04/24 09:45:37;;;;;;;1.20;0.90;;;9.70;98.00;;;;;;5113742;28;20458;-68
2022/04/24 09:48:12;;;;;;;1.20;0.90;;;9.70;98.00;;;;;;5113365;28;20471;-68
2022/04/24 09:50:41;;;;;;;1.20;0.93;;;9.70;98.00;;;;;;5113273;28;20456;-68
2022/04/24 09:53:10;;;;;;;1.20;0.93;;;9.60;98.00;;;;;;5113323;28;20524;-68
2022/04/24 09:55:38;;;;;;;1.20;0.90;;;9.70;98.00;;;;;;5113038;28;20534;-68
2022/04/24 09:58:06;;;;;;;1.20;1.00;;;9.80;98.00;;;;;;5113128;28;20454;-69
2022/04/24 10:00:34;;;;;;;1.20;0.90;;;9.90;98.00;;;;;;5113218;28;20555;-68
2022/04/24 10:03:02;;;;;;;1.20;0.93;;;9.90;98.00;;;;;;5113090;28;20483;-68
2022/04/24 10:05:30;;;;;;;1.20;0.90;;;9.90;98.00;;;;;;5113113;28;20449;-69
2022/04/24 10:08:02;;;;;;;1.20;0.90;;;10.00;98.00;;;;;;5112932;28;20456;-68
2022/04/24 10:10:29;;;;;;;1.97;1.53;;;9.90;98.00;;;;;;5113242;28;20554;-68
2022/04/24 10:12:56;;;;;;;1.20;0.97;;;9.90;98.00;;;;;;5113015;28;20962;-68
2022/04/24 10:15:25;;;;;;;1.20;0.90;;;10.00;98.00;;;;;;5113191;28;20483;-68
2022/04/24 10:18:17;;;;;;;1.20;0.90;;;10.10;98.00;;;;;;5112920;28;20444;-68
2022/04/24 10:21:04;;;;;;;1.20;0.90;;;10.10;98.00;;;;;;5113109;28;20466;-68
2022/04/24 10:23:39;;;;;;;1.23;1.13;;;10.00;98.00;;;;;;5112641;28;20904;-69
2022/04/24 10:26:17;;;;;;;1.30;1.00;;;10.00;98.00;;;;;;5112893;28;20800;-69
2022/04/24 10:28:46;;;;;;;1.20;0.90;;;10.00;98.00;;;;;;5112734;28;20886;-68
2022/04/24 10:31:14;;;;;;;1.20;1.00;;;10.00;98.00;;;;;;5112781;28;20454;-68
2022/04/24 10:33:51;;;;;;;1.20;1.00;;;10.00;98.00;;;;;;5112710;28;20454;-68
2022/04/24 10:36:19;;;;;;;1.20;0.93;;;10.00;98.00;;;;;;5112905;28;20462;-69
2022/04/24 10:38:52;;;;;;;2.27;1.20;;;10.00;98.00;;;;;;5112574;28;20520;-68
2022/04/24 10:41:21;;;;;;;3.20;1.43;;;10.10;98.00;;;;;;5112550;28;20504;-69
2022/04/24 10:43:51;;;;;;;1.20;1.00;;;10.10;98.00;;;;;;5112181;28;20566;-68
2022/04/24 10:46:19;;;;;;;1.30;1.10;;;10.20;98.00;;;;;;5112192;28;20545;-68
2022/04/24 10:48:47;;;;;;;1.20;1.00;;;10.20;98.00;;;;;;5112281;28;20511;-68
2022/04/24 10:51:15;;;;;;;1.20;0.90;;;10.20;98.00;;;;;;5111680;28;20459;-68
2022/04/24 10:53:56;;;;;;;1.30;1.10;;;10.20;98.00;;;;;;5112171;28;20508;-69
2022/04/24 10:56:24;;;;;;;1.20;0.90;;;10.20;98.00;;;;;;5112270;28;20489;-69
2022/04/24 10:58:50;;;;;;;1.30;1.20;;;10.10;98.00;;;;;;5112253;28;20558;-69
2022/04/24 11:01:21;;;;;;;1.30;1.20;;;10.10;98.00;;;;;;5112211;28;20510;-68
2022/04/24 11:03:48;;;;;;;1.30;1.03;;;10.20;98.00;;;;;;5111940;28;20906;-69
2022/04/24 11:06:23;;;;;;;1.20;1.00;;;10.20;98.00;;;;;;5112254;28;20482;-68
2022/04/24 11:08:52;;;;;;;1.20;1.00;;;10.20;98.00;;;;;;5112157;28;20455;-68
2022/04/24 11:11:19;;;;;;;1.20;1.00;;;10.20;98.00;;;;;;5112219;28;20450;-68
2022/04/24 11:13:47;;;;;;;1.20;0.90;;;10.20;98.00;;;;;;5112129;28;20556;-68
2022/04/24 11:16:14;;;;;;;1.20;1.00;;;10.10;98.00;;;;;;5112234;28;20782;-68
2022/04/24 11:18:48;;;;;;;1.20;0.90;;;10.10;98.00;;;;;;5112218;28;20968;-68
2022/04/24 11:21:19;;;;;;;1.20;0.90;;;10.10;98.00;;;;;;5112207;28;21091;-67
2022/04/24 11:23:47;;;;;;;1.20;0.90;;;10.20;98.00;;;;;;5111469;28;20497;-68
2022/04/24 11:26:15;;;;;;;1.20;1.03;;;10.20;98.00;;;;;;5110085;28;20462;-68
2022/04/24 11:28:45;;;;;;;1.20;0.90;;;10.20;98.00;;;;;;5111477;28;20512;-68
2022/04/24 11:31:14;;;;;;;1.20;1.00;;;10.20;98.00;;;;;;5110821;28;20464;-69
2022/04/24 11:33:59;;;;;;;2.40;1.00;;;10.40;98.00;;;;;;5111863;28;20534;-68
2022/04/24 11:36:31;;;;;;;1.20;0.90;;;10.50;98.00;;;;;;5111924;28;20450;-68
2022/04/24 11:38:58;;;;;;;1.20;1.00;;;10.40;98.00;;;;;;5111585;28;20546;-69
2022/04/24 11:41:31;;;;;;;1.20;1.00;;;10.50;98.00;;;;;;5111862;28;20515;-69
2022/04/24 11:44:01;;;;;;;1.20;1.00;;;10.40;98.00;;;;;;5111439;28;20513;-67
2022/04/24 11:51:56;;;;;;;1.20;0.90;;;10.40;98.00;;;;;;5111771;28;20450;-68
2022/04/24 11:54:24;;;;;;;1.20;0.90;;;10.50;98.00;;;;;;5111586;28;20462;-68
2022/04/24 11:56:53;;;;;;;1.20;1.00;;;10.60;98.00;;;;;;5111716;28;20807;-68
2022/04/24 11:59:22;;;;;;;1.20;1.00;;;10.60;98.00;;;;;;5111505;28;20473;-69
2022/04/24 12:01:57;;;;;;;1.20;1.10;;;10.60;98.00;;;;;;5112192;28;20447;-68
2022/04/24 12:04:28;;;;;;;1.20;1.00;;;10.70;98.00;;;;;;5115430;28;20570;-69
2022/04/24 12:07:01;;;;;;;1.20;1.00;;;10.80;98.00;;;;;;5115553;28;20537;-68
2022/04/24 12:09:29;;;;;;;1.20;0.90;;;10.80;98.00;;;;;;5115572;28;20451;-68
2022/04/24 12:12:07;;;;;;;1.20;0.90;;;10.90;98.00;;;;;;5115523;28;20833;-68
2022/04/24 12:14:35;;;;;;;1.20;0.90;;;10.90;98.00;;;;;;5115561;28;20462;-68
2022/04/24 12:17:05;;;;;;;1.20;0.90;;;10.90;98.00;;;;;;5115538;28;20999;-68
2022/04/24 12:19:32;;;;;;;1.20;1.10;;;11.00;98.00;;;;;;5115399;28;20450;-69
2022/04/24 12:22:09;;;;;;;1.20;1.00;;;11.20;98.00;;;;;;5115181;28;20567;-68
2022/04/24 12:24:44;;;;;;;1.20;0.90;;;11.30;98.00;;;;;;5115104;28;20485;-69
2022/04/24 12:27:13;;;;;;;1.20;1.10;;;11.20;98.00;;;;;;5115267;28;20461;-68
2022/04/24 12:29:45;;;;;;;1.20;0.97;;;11.20;98.00;;;;;;5114826;28;20458;-68
2022/04/24 12:32:14;;;;;;;1.20;0.90;;;11.20;98.00;;;;;;5114849;28;20534;-68
2022/04/24 12:34:42;;;;;;;1.30;1.00;;;11.20;98.00;;;;;;5114782;28;20453;-68
2022/04/24 12:37:10;;;;;;;1.20;1.00;;;11.30;98.00;;;;;;5114859;28;20454;-68
2022/04/24 12:39:38;;;;;;;1.20;1.00;;;11.30;98.00;;;;;;5114736;28;20519;-68
2022/04/24 12:42:17;;;;;;;1.67;1.17;;;11.20;98.00;;;;;;5114659;28;20584;-68
2022/04/24 12:44:44;;;;;;;1.20;0.90;;;11.30;98.00;;;;;;5114479;28;20487;-68
2022/04/24 12:47:12;;;;;;;1.20;0.90;;;11.30;98.00;;;;;;5114463;28;20463;-68
2022/04/24 12:49:40;;;;;;;1.40;1.20;;;11.20;98.00;;;;;;5114583;28;20550;-68
2022/04/24 12:52:08;;;;;;;1.20;1.00;;;11.30;98.00;;;;;;5114560;28;20456;-68
2022/04/24 12:54:35;;;;;;;1.20;1.00;;;11.30;98.00;;;;;;5114471;28;20905;-68
2022/04/24 12:57:04;;;;;;;1.20;1.00;;;11.20;98.00;;;;;;5114474;28;20458;-68
2022/04/24 12:59:34;;;;;;;1.20;1.00;;;11.20;98.00;;;;;;5114440;28;21049;-68
2022/04/24 13:02:01;;;;;;;1.20;1.00;;;11.30;98.00;;;;;;5114469;28;20873;-68